createdAt,value
2023-03-22T00:01:12.763Z,6.38
2023-03-22T00:05:08.973Z,6.25
2023-03-22T00:10:08.374Z,6.43
2023-03-22T00:15:08.471Z,6.90
2023-03-22T00:20:08.518Z,6.50
2023-03-22T00:25:08.573Z,6.30
2023-03-22T00:30:08.616Z,6.55
2023-03-22T00:35:08.702Z,6.55
2023-03-22T00:40:08.771Z,6.40
2023-03-22T00:45:08.825Z,6.18
2023-03-22T00:50:08.864Z,5.63
2023-03-22T00:55:08.944Z,4.80
2023-03-22T01:00:08.030Z,4.90
2023-03-22T01:05:08.125Z,4.85
2023-03-22T01:10:08.166Z,4.88
2023-03-22T01:15:08.239Z,4.75
2023-03-22T01:20:08.294Z,4.40
2023-03-22T01:25:09.150Z,4.68
2023-03-22T01:30:08.211Z,4.13
2023-03-22T01:35:08.234Z,4.20
2023-03-22T01:40:08.362Z,4.05
2023-03-22T01:45:08.421Z,4.47
2023-03-22T01:50:08.545Z,4.78
2023-03-22T01:55:08.618Z,4.90
2023-03-22T02:00:08.659Z,5.57
2023-03-22T02:05:08.936Z,5.40
2023-03-22T02:10:08.054Z,5.55
2023-03-22T02:15:18.128Z,0
2023-03-22T02:20:08.177Z,6.03
2023-03-22T02:25:08.232Z,6.30
2023-03-22T02:30:08.571Z,6.28
2023-03-22T02:35:08.611Z,7.03
2023-03-22T02:40:08.717Z,7.13
2023-03-22T02:45:08.846Z,7.10
2023-03-22T02:50:08.937Z,7.70
2023-03-22T02:55:08.023Z,7.72
2023-03-22T03:00:08.077Z,8.13
2023-03-22T03:05:08.128Z,8.55
2023-03-22T03:10:08.202Z,8.50
2023-03-22T03:15:08.246Z,7.80
2023-03-22T03:20:08.330Z,8.10
2023-03-22T03:25:08.411Z,9.15
2023-03-22T03:30:08.477Z,8.40
2023-03-22T03:35:08.557Z,7.63
2023-03-22T03:40:08.626Z,8.07
2023-03-22T03:45:08.792Z,7.40
2023-03-22T03:50:08.866Z,7.75
2023-03-22T03:55:08.864Z,8.00
2023-03-22T04:00:08.979Z,7.68
2023-03-22T04:05:08.054Z,6.55
2023-03-22T04:10:08.151Z,7.28
2023-03-22T04:15:08.222Z,7.30
2023-03-22T04:20:08.247Z,6.57
2023-03-22T04:25:08.300Z,6.50
2023-03-22T04:30:08.342Z,5.82
2023-03-22T04:35:08.456Z,5.43
2023-03-22T04:40:08.500Z,5.88
2023-03-22T04:45:08.540Z,5.93
2023-03-22T04:50:08.606Z,5.65
2023-03-22T04:55:08.733Z,6.05
2023-03-22T05:00:08.782Z,5.65
2023-03-22T05:05:03.129Z,5.43
2023-03-22T05:10:02.835Z,5.18
2023-03-22T05:15:03.029Z,4.53
2023-03-22T05:20:02.487Z,4.88
2023-03-22T05:25:02.830Z,4.60
2023-03-22T05:30:03.282Z,5.40
2023-03-22T05:35:02.637Z,4.22
2023-03-22T05:40:04.800Z,4.68
2023-03-22T05:45:02.986Z,4.68
2023-03-22T05:50:02.230Z,4.22
2023-03-22T05:55:02.532Z,4.22
2023-03-22T06:00:02.640Z,4.28
2023-03-22T06:05:02.900Z,3.78
2023-03-22T06:10:03.099Z,3.75
2023-03-22T06:15:02.377Z,3.63
2023-03-22T06:20:02.828Z,3.30
2023-03-22T06:25:03.042Z,3.78
2023-03-22T06:30:02.391Z,3.92
2023-03-22T06:35:02.623Z,3.92
2023-03-22T06:40:02.789Z,3.55
2023-03-22T06:45:03.049Z,3.05
2023-03-22T06:50:02.341Z,3.25
2023-03-22T06:55:02.560Z,3.17
2023-03-22T07:00:02.775Z,3.35
2023-03-22T07:05:10.205Z,2.83
2023-03-22T07:10:02.491Z,3.13
2023-03-22T07:15:02.719Z,3.28
2023-03-22T07:20:03.004Z,3.35
2023-03-22T07:25:02.225Z,3.35
2023-03-22T07:30:02.500Z,3.40
2023-03-22T07:35:02.793Z,3.30
2023-03-22T07:40:03.063Z,2.78
2023-03-22T07:45:02.376Z,2.53
2023-03-22T07:50:02.728Z,2.80
2023-03-22T07:55:02.895Z,2.90
2023-03-22T08:00:03.127Z,2.88
2023-03-22T08:05:02.329Z,3.00
2023-03-22T08:10:02.573Z,2.40
2023-03-22T08:15:02.812Z,3.25
2023-03-22T08:20:03.049Z,3.05
2023-03-22T08:25:02.473Z,2.97
2023-03-22T08:30:02.769Z,3.30
2023-03-22T08:35:03.066Z,2.90
2023-03-22T08:40:02.396Z,3.28
2023-03-22T08:45:02.765Z,3.22
2023-03-22T08:50:02.958Z,2.67
2023-03-22T08:55:02.496Z,3.20
2023-03-22T09:00:02.608Z,3.30
2023-03-22T09:05:02.799Z,3.35
2023-03-22T09:10:03.107Z,2.95
2023-03-22T09:15:02.350Z,2.65
2023-03-22T09:20:12.072Z,2.42
2023-03-22T09:25:02.308Z,2.80
2023-03-22T09:30:02.885Z,3.25
2023-03-22T09:35:03.070Z,2.50
2023-03-22T09:40:02.316Z,2.72
2023-03-22T09:45:02.662Z,2.40
2023-03-22T09:50:02.940Z,2.90
2023-03-22T09:55:02.240Z,3.00
2023-03-22T10:00:10.649Z,2.40
2023-03-22T10:05:02.982Z,2.67
2023-03-22T10:10:02.310Z,2.90
2023-03-22T10:15:02.550Z,2.38
2023-03-22T10:20:02.896Z,2.60
2023-03-22T10:25:03.212Z,2.58
2023-03-22T10:30:02.529Z,2.67
2023-03-22T10:35:02.889Z,2.30
2023-03-22T10:40:03.104Z,2.20
2023-03-22T10:45:02.304Z,1.90
2023-03-22T10:50:02.463Z,2.13
2023-03-22T10:55:04.583Z,2.63
2023-03-22T11:00:02.938Z,2.22
2023-03-22T11:05:02.166Z,2.00
2023-03-22T11:10:02.348Z,2.72
2023-03-22T11:15:02.493Z,2.28
2023-03-22T11:20:02.866Z,2.10
2023-03-22T11:25:03.297Z,1.88
2023-03-22T11:30:02.759Z,2.28
2023-03-22T11:35:04.652Z,2.17
2023-03-22T11:40:02.884Z,1.90
2023-03-22T11:45:03.189Z,2.05
2023-03-22T11:50:02.432Z,2.40
2023-03-22T11:55:02.596Z,1.88
2023-03-22T12:00:03.096Z,2.05
2023-03-22T12:05:12.365Z,0
2023-03-22T12:10:02.694Z,2.03
2023-03-22T12:15:02.962Z,2.33
2023-03-22T12:20:02.177Z,2.75
2023-03-22T12:25:02.475Z,2.70
2023-03-22T12:30:02.697Z,2.03
2023-03-22T12:35:16.629Z,2.13
2023-03-22T12:40:02.658Z,2.28
2023-03-22T12:45:05.433Z,2.10
2023-03-22T12:50:02.959Z,2.17
2023-03-22T12:55:02.218Z,2.05
2023-03-22T13:00:02.387Z,2.15
2023-03-22T13:05:02.613Z,1.60
2023-03-22T13:10:02.746Z,1.95
2023-03-22T13:15:02.896Z,1.90
2023-03-22T13:20:03.135Z,1.80
2023-03-22T13:25:02.439Z,1.95
2023-03-22T13:30:02.729Z,1.40
2023-03-22T13:35:03.033Z,2.00
2023-03-22T13:40:02.506Z,2.10
2023-03-22T13:45:03.451Z,1.92
2023-03-22T13:50:02.667Z,1.50
2023-03-22T13:55:02.821Z,1.40
2023-03-22T14:00:11.300Z,1.33
2023-03-22T14:05:02.509Z,2.10
2023-03-22T14:10:02.744Z,1.80
2023-03-22T14:15:02.979Z,1.90
2023-03-22T14:20:02.344Z,1.70
2023-03-22T14:55:02.777Z,1.67
2023-03-22T15:00:03.071Z,2.08
2023-03-22T15:10:02.841Z,1.85
2023-03-22T15:15:03.216Z,1.70
2023-03-22T15:20:02.604Z,2.05
2023-03-22T15:25:02.892Z,2.03
2023-03-22T15:30:02.182Z,2.03
2023-03-22T15:35:02.412Z,1.80
2023-03-22T15:40:02.836Z,2.20
2023-03-22T15:45:03.054Z,2.15
2023-03-22T15:50:02.263Z,1.80
2023-03-22T15:55:02.518Z,2.47
2023-03-22T16:00:02.763Z,1.80
2023-03-22T16:05:02.930Z,2.17
2023-03-22T16:10:02.110Z,2.20
2023-03-22T16:15:02.246Z,1.95
2023-03-22T16:20:02.391Z,2.10
2023-03-22T16:25:02.596Z,2.13
2023-03-22T16:30:02.718Z,2.10
2023-03-22T16:35:02.982Z,1.98
2023-03-22T16:40:02.321Z,2.40
2023-03-22T16:45:02.650Z,2.05
2023-03-22T16:50:02.762Z,2.22
2023-03-22T16:55:03.007Z,2.25
2023-03-22T17:00:02.213Z,2.17
2023-03-22T17:05:02.372Z,2.45
2023-03-22T17:10:02.788Z,2.20
2023-03-22T17:15:02.889Z,2.30
2023-03-22T17:20:02.184Z,2.35
2023-03-22T17:25:02.720Z,2.42
2023-03-22T17:30:02.901Z,2.40
2023-03-22T17:35:02.314Z,2.60
2023-03-22T17:40:28.284Z,2.60
2023-03-22T17:45:03.043Z,2.40
2023-03-22T17:50:02.298Z,2.35
2023-03-22T17:55:19.225Z,2.70
2023-03-22T18:00:02.929Z,2.95
2023-03-22T18:05:02.217Z,2.60
2023-03-22T18:10:02.476Z,3.25
2023-03-22T18:15:02.916Z,2.85
2023-03-22T18:20:17.077Z,2.88
2023-03-22T18:25:03.009Z,2.53
2023-03-22T18:30:02.233Z,2.40
2023-03-22T18:35:02.681Z,2.80
2023-03-22T18:45:03.284Z,2.47
2023-03-22T18:50:02.657Z,2.60
2023-03-22T18:55:21.484Z,2.33
2023-03-22T19:00:02.845Z,2.20
2023-03-22T19:05:03.073Z,2.13
2023-03-22T19:10:02.374Z,2.50
2023-03-22T19:15:21.448Z,2.53
2023-03-22T19:20:03.146Z,2.65
2023-03-22T19:25:02.463Z,3.03
2023-03-22T19:30:03.418Z,2.70
2023-03-22T19:35:02.862Z,2.80
2023-03-22T19:45:02.359Z,4.00
2023-03-22T19:50:02.619Z,3.42
2023-03-22T19:55:02.894Z,4.18
2023-03-22T20:00:43.675Z,4.05
2023-03-22T20:05:11.354Z,4.43
2023-03-22T20:10:03.185Z,3.95
2023-03-22T20:15:02.587Z,3.90
2023-03-22T20:20:04.421Z,3.95
2023-03-22T20:25:02.891Z,4.05
2023-03-22T20:30:02.964Z,3.90
2023-03-22T20:35:02.223Z,4.88
2023-03-22T20:40:02.502Z,4.90
2023-03-22T20:45:02.831Z,4.47
2023-03-22T20:50:02.977Z,4.93
2023-03-22T20:55:02.346Z,4.63
2023-03-22T21:00:02.618Z,5.18
2023-03-22T21:05:04.300Z,4.75
2023-03-22T21:10:04.193Z,4.50
2023-03-22T21:15:04.892Z,4.22
2023-03-22T21:20:26.853Z,4.65
2023-03-22T21:25:07.684Z,5.07
2023-03-22T21:30:09.795Z,4.93
2023-03-22T21:35:07.157Z,5.28
2023-03-22T21:40:05.612Z,4.82
2023-03-22T21:45:12.638Z,4.32
2023-03-22T21:50:05.249Z,4.50
2023-03-22T21:55:07.624Z,4.18
2023-03-22T22:00:12.870Z,4.93
2023-03-22T22:05:15.074Z,4.45
2023-03-22T22:10:08.104Z,4.13
2023-03-22T22:15:08.232Z,4.32
2023-03-22T22:20:08.356Z,4.10
2023-03-22T22:25:08.457Z,4.72
2023-03-22T22:30:08.495Z,4.97
2023-03-22T22:35:08.513Z,3.90
2023-03-22T22:40:08.201Z,4.07
2023-03-22T22:45:08.270Z,3.85
2023-03-22T22:50:08.311Z,4.38
2023-03-22T22:55:08.350Z,4.03
2023-03-22T23:00:08.400Z,3.78
2023-03-22T23:05:08.583Z,3.58
2023-03-22T23:10:08.959Z,3.88
2023-03-22T23:15:12.594Z,3.33
2023-03-22T23:20:12.622Z,3.28
2023-03-22T23:25:08.662Z,3.22
2023-03-22T23:30:08.786Z,3.03
2023-03-22T23:35:08.823Z,2.78
2023-03-22T23:40:08.878Z,2.75
2023-03-22T23:45:07.984Z,2.80
2023-03-22T23:50:08.283Z,2.42
2023-03-22T23:55:08.396Z,2.42
